sensor_id;sensor_type;location;lat;lon;timestamp;pressure;altitude;pressure_sealevel;temperature;humidity
79463;BME280;68931;47.286;18.756;2024-03-06T00:00:21;100442.06;;;4.02;100.00
79463;BME280;68931;47.286;18.756;2024-03-06T00:00:54;100474.34;;;4.21;100.00
79463;BME280;68931;47.286;18.756;2024-03-06T00:01:26;100452.28;;;4.06;100.00
79463;BME280;68931;47.286;18.756;2024-03-06T00:01:58;100462.69;;;4.06;100.00
79463;BME280;68931;47.286;18.756;2024-03-06T00:02:30;100452.47;;;4.02;100.00
79463;BME280;68931;47.286;18.756;2024-03-06T00:03:02;100453.44;;;3.98;100.00
79463;BME280;68931;47.286;18.756;2024-03-06T00:03:34;100469.56;;;4.07;100.00
79463;BME280;68931;47.286;18.756;2024-03-06T00:04:07;100465.44;;;4.02;100.00
79463;BME280;68931;47.286;18.756;2024-03-06T00:04:39;100476.41;;;4.10;100.00
79463;BME280;68931;47.286;18.756;2024-03-06T00:05:17;100474.91;;;4.03;100.00
79463;BME280;68931;47.286;18.756;2024-03-06T00:05:52;100455.38;;;3.91;100.00
79463;BME280;68931;47.286;18.756;2024-03-06T00:06:24;100456.19;;;3.93;100.00
79463;BME280;68931;47.286;18.756;2024-03-06T00:06:56;100459.59;;;3.95;100.00
79463;BME280;68931;47.286;18.756;2024-03-06T00:07:29;100472.28;;;4.04;100.00
79463;BME280;68931;47.286;18.756;2024-03-06T00:08:01;100440.75;;;3.89;100.00
79463;BME280;68931;47.286;18.756;2024-03-06T00:08:35;100449.25;;;3.94;100.00
79463;BME280;68931;47.286;18.756;2024-03-06T00:09:08;100468.63;;;4.10;100.00
79463;BME280;68931;47.286;18.756;2024-03-06T00:09:40;100477.41;;;4.06;100.00
79463;BME280;68931;47.286;18.756;2024-03-06T00:10:12;100480.81;;;4.08;100.00
79463;BME280;68931;47.286;18.756;2024-03-06T00:10:44;100450.88;;;3.96;100.00
79463;BME280;68931;47.286;18.756;2024-03-06T00:11:16;100441.72;;;3.86;100.00
79463;BME280;68931;47.286;18.756;2024-03-06T00:11:51;100448.44;;;3.92;100.00
79463;BME280;68931;47.286;18.756;2024-03-06T00:12:24;100457.72;;;3.99;100.00
79463;BME280;68931;47.286;18.756;2024-03-06T00:13:15;100470.59;;;4.03;100.00
79463;BME280;68931;47.286;18.756;2024-03-06T00:14:06;100455.25;;;3.96;100.00
79463;BME280;68931;47.286;18.756;2024-03-06T00:14:38;100450.97;;;3.95;100.00
79463;BME280;68931;47.286;18.756;2024-03-06T00:15:10;100464.78;;;3.95;100.00
79463;BME280;68931;47.286;18.756;2024-03-06T00:15:42;100453.59;;;3.93;100.00
79463;BME280;68931;47.286;18.756;2024-03-06T00:16:14;100450.97;;;3.95;100.00
79463;BME280;68931;47.286;18.756;2024-03-06T00:16:48;100472.28;;;4.04;100.00
79463;BME280;68931;47.286;18.756;2024-03-06T00:17:21;100443.53;;;3.83;100.00
79463;BME280;68931;47.286;18.756;2024-03-06T00:17:53;100446.06;;;3.86;100.00
79463;BME280;68931;47.286;18.756;2024-03-06T00:18:26;100460.53;;;3.93;100.00
79463;BME280;68931;47.286;18.756;2024-03-06T00:18:58;100475.03;;;3.98;100.00
79463;BME280;68931;47.286;18.756;2024-03-06T00:19:30;100439.25;;;3.82;100.00
79463;BME280;68931;47.286;18.756;2024-03-06T00:20:02;100441.75;;;3.85;100.00
79463;BME280;68931;47.286;18.756;2024-03-06T00:20:37;100459.72;;;3.91;100.00
79463;BME280;68931;47.286;18.756;2024-03-06T00:21:09;100447.63;;;3.90;100.00
79463;BME280;68931;47.286;18.756;2024-03-06T00:21:41;100445.09;;;3.88;100.00
79463;BME280;68931;47.286;18.756;2024-03-06T00:22:13;100478.41;;;4.02;100.00
79463;BME280;68931;47.286;18.756;2024-03-06T00:23:13;100434.06;;;3.82;100.00
79463;BME280;68931;47.286;18.756;2024-03-06T00:23:46;100475.56;;;4.09;100.00
79463;BME280;68931;47.286;18.756;2024-03-06T00:24:18;100467.13;;;4.03;100.00
79463;BME280;68931;47.286;18.756;2024-03-06T00:24:51;100464.63;;;4.00;100.00
79463;BME280;68931;47.286;18.756;2024-03-06T00:25:25;100458.66;;;3.96;100.00
79463;BME280;68931;47.286;18.756;2024-03-06T00:25:57;100477.53;;;4.03;100.00
79463;BME280;68931;47.286;18.756;2024-03-06T00:26:30;100458.75;;;3.95;100.00
79463;BME280;68931;47.286;18.756;2024-03-06T00:27:15;100457.09;;;3.92;100.00
79463;BME280;68931;47.286;18.756;2024-03-06T00:27:47;100453.72;;;3.89;100.00
79463;BME280;68931;47.286;18.756;2024-03-06T00:28:19;100464.72;;;3.97;100.00
79463;BME280;68931;47.286;18.756;2024-03-06T00:28:52;100436.66;;;3.82;100.00
79463;BME280;68931;47.286;18.756;2024-03-06T00:29:24;100463.81;;;3.98;100.00
79463;BME280;68931;47.286;18.756;2024-03-06T00:29:56;100465.56;;;3.97;100.00
79463;BME280;68931;47.286;18.756;2024-03-06T00:30:28;100444.50;;;3.78;100.00
79463;BME280;68931;47.286;18.756;2024-03-06T00:31:00;100457.94;;;3.93;100.00
79463;BME280;68931;47.286;18.756;2024-03-06T00:31:32;100474.19;;;3.98;100.00
79463;BME280;68931;47.286;18.756;2024-03-06T00:32:04;100470.63;;;4.02;100.00
79463;BME280;68931;47.286;18.756;2024-03-06T00:32:36;100460.44;;;3.96;100.00
79463;BME280;68931;47.286;18.756;2024-03-06T00:33:08;100460.28;;;4.00;100.00
79463;BME280;68931;47.286;18.756;2024-03-06T00:33:40;100443.50;;;3.84;100.00
79463;BME280;68931;47.286;18.756;2024-03-06T00:34:13;100476.66;;;4.02;100.00
79463;BME280;68931;47.286;18.756;2024-03-06T00:34:48;100453.03;;;3.84;100.00
79463;BME280;68931;47.286;18.756;2024-03-06T00:35:20;100454.72;;;3.85;100.00
79463;BME280;68931;47.286;18.756;2024-03-06T00:35:52;100448.78;;;3.81;100.00
79463;BME280;68931;47.286;18.756;2024-03-06T00:36:24;100463.31;;;3.87;100.00
79463;BME280;68931;47.286;18.756;2024-03-06T00:36:56;100432.66;;;3.70;100.00
79463;BME280;68931;47.286;18.756;2024-03-06T00:37:28;100478.72;;;3.91;100.00
79463;BME280;68931;47.286;18.756;2024-03-06T00:38:00;100474.53;;;3.87;100.00
79463;BME280;68931;47.286;18.756;2024-03-06T00:38:35;100457.41;;;3.82;100.00
79463;BME280;68931;47.286;18.756;2024-03-06T00:39:07;100455.75;;;3.79;100.00
79463;BME280;68931;47.286;18.756;2024-03-06T00:39:39;100448.13;;;3.74;100.00
79463;BME280;68931;47.286;18.756;2024-03-06T00:40:12;100456.03;;;3.70;100.00
79463;BME280;68931;47.286;18.756;2024-03-06T00:40:44;100466.19;;;3.77;100.00
79463;BME280;68931;47.286;18.756;2024-03-06T00:41:16;100478.19;;;3.80;100.00
79463;BME280;68931;47.286;18.756;2024-03-06T00:41:48;100462.94;;;3.69;100.00
79463;BME280;68931;47.286;18.756;2024-03-06T00:42:20;100449.44;;;3.60;100.00
79463;BME280;68931;47.286;18.756;2024-03-06T00:42:54;100461.38;;;3.65;100.00
79463;BME280;68931;47.286;18.756;2024-03-06T00:43:26;100476.69;;;3.73;100.00
79463;BME280;68931;47.286;18.756;2024-03-06T00:43:58;100457.16;;;3.61;100.00
79463;BME280;68931;47.286;18.756;2024-03-06T00:44:30;100476.66;;;3.74;100.00
79463;BME280;68931;47.286;18.756;2024-03-06T00:45:03;100448.69;;;3.55;100.00
79463;BME280;68931;47.286;18.756;2024-03-06T00:45:35;100469.19;;;3.64;100.00
79463;BME280;68931;47.286;18.756;2024-03-06T00:46:07;100461.66;;;3.55;100.00
79463;BME280;68931;47.286;18.756;2024-03-06T00:46:39;100470.84;;;3.66;100.00
79463;BME280;68931;47.286;18.756;2024-03-06T00:47:11;100460.81;;;3.54;100.00
79463;BME280;68931;47.286;18.756;2024-03-06T00:48:09;100494.06;;;3.69;100.00
79463;BME280;68931;47.286;18.756;2024-03-06T00:48:41;100470.94;;;3.63;100.00
79463;BME280;68931;47.286;18.756;2024-03-06T00:49:20;100460.81;;;3.54;100.00
79463;BME280;68931;47.286;18.756;2024-03-06T00:49:52;100463.38;;;3.56;100.00
79463;BME280;68931;47.286;18.756;2024-03-06T00:50:24;100475.25;;;3.63;100.00
79463;BME280;68931;47.286;18.756;2024-03-06T00:50:56;100479.53;;;3.65;100.00
79463;BME280;68931;47.286;18.756;2024-03-06T00:51:28;100454.03;;;3.50;100.00
79463;BME280;68931;47.286;18.756;2024-03-06T00:52:03;100456.44;;;3.56;100.00
79463;BME280;68931;47.286;18.756;2024-03-06T00:52:36;100470.13;;;3.61;100.00
79463;BME280;68931;47.286;18.756;2024-03-06T00:53:08;100463.59;;;3.48;100.00
79463;BME280;68931;47.286;18.756;2024-03-06T00:53:40;100471.03;;;3.60;100.00
79463;BME280;68931;47.286;18.756;2024-03-06T00:54:12;100444.78;;;3.42;100.00
79463;BME280;68931;47.286;18.756;2024-03-06T00:54:44;100479.53;;;3.65;100.00
79463;BME280;68931;47.286;18.756;2024-03-06T00:55:16;100473.50;;;3.63;100.00
79463;BME280;68931;47.286;18.756;2024-03-06T00:55:49;100464.03;;;3.62;100.00
79463;BME280;68931;47.286;18.756;2024-03-06T00:56:21;100476.13;;;3.63;100.00
79463;BME280;68931;47.286;18.756;2024-03-06T00:56:53;100478.66;;;3.65;100.00
79463;BME280;68931;47.286;18.756;2024-03-06T00:57:51;100485.59;;;3.64;100.00
79463;BME280;68931;47.286;18.756;2024-03-06T00:58:42;100458.44;;;3.47;100.00
79463;BME280;68931;47.286;18.756;2024-03-06T00:59:14;100426.94;;;3.31;100.00
79463;BME280;68931;47.286;18.756;2024-03-06T00:59:46;100463.41;;;3.54;100.00
79463;BME280;68931;47.286;18.756;2024-03-06T01:00:19;100478.00;;;3.58;100.00
79463;BME280;68931;47.286;18.756;2024-03-06T01:00:51;100458.59;;;3.42;100.00
79463;BME280;68931;47.286;18.756;2024-03-06T01:01:23;100461.91;;;3.47;100.00
79463;BME280;68931;47.286;18.756;2024-03-06T01:01:55;100454.31;;;3.41;100.00
79463;BME280;68931;47.286;18.756;2024-03-06T01:02:30;100464.53;;;3.46;100.00
79463;BME280;68931;47.286;18.756;2024-03-06T01:03:02;100479.94;;;3.52;100.00
79463;BME280;68931;47.286;18.756;2024-03-06T01:03:34;100479.16;;;3.48;100.00
79463;BME280;68931;47.286;18.756;2024-03-06T01:04:06;100471.50;;;3.44;100.00
79463;BME280;68931;47.286;18.756;2024-03-06T01:04:38;100473.16;;;3.46;100.00
79463;BME280;68931;47.286;18.756;2024-03-06T01:05:10;100459.66;;;3.35;100.00
79463;BME280;68931;47.286;18.756;2024-03-06T01:05:42;100454.66;;;3.29;100.00
79463;BME280;68931;47.286;18.756;2024-03-06T01:06:14;100457.19;;;3.30;100.00
79463;BME280;68931;47.286;18.756;2024-03-06T01:06:55;100449.53;;;3.26;100.00
79463;BME280;68931;47.286;18.756;2024-03-06T01:07:28;100463.22;;;3.31;100.00
79463;BME280;68931;47.286;18.756;2024-03-06T01:08:00;100457.16;;;3.32;100.00
79463;BME280;68931;47.286;18.756;2024-03-06T01:08:32;100445.31;;;3.23;100.00
79463;BME280;68931;47.286;18.756;2024-03-06T01:09:04;100481.94;;;3.42;100.00
79463;BME280;68931;47.286;18.756;2024-03-06T01:09:36;100470.13;;;3.32;100.00
79463;BME280;68931;47.286;18.756;2024-03-06T01:10:09;100439.44;;;3.17;100.00
79463;BME280;68931;47.286;18.756;2024-03-06T01:10:41;100480.31;;;3.38;100.00
79463;BME280;68931;47.286;18.756;2024-03-06T01:11:13;100463.19;;;3.32;100.00
79463;BME280;68931;47.286;18.756;2024-03-06T01:11:47;100470.94;;;3.34;100.00
79463;BME280;68931;47.286;18.756;2024-03-06T01:12:19;100457.31;;;3.26;100.00
79463;BME280;68931;47.286;18.756;2024-03-06T01:12:51;100487.91;;;3.44;100.00
79463;BME280;68931;47.286;18.756;2024-03-06T01:13:23;100487.13;;;3.42;100.00
79463;BME280;68931;47.286;18.756;2024-03-06T01:13:55;100481.19;;;3.37;100.00
79463;BME280;68931;47.286;18.756;2024-03-06T01:14:31;100485.53;;;3.36;100.00
79463;BME280;68931;47.286;18.756;2024-03-06T01:15:04;100479.50;;;3.36;100.00
79463;BME280;68931;47.286;18.756;2024-03-06T01:15:37;100471.09;;;3.28;100.00
79463;BME280;68931;47.286;18.756;2024-03-06T01:16:09;100473.47;;;3.35;100.00
79463;BME280;68931;47.286;18.756;2024-03-06T01:16:41;100460.00;;;3.23;100.00
79463;BME280;68931;47.286;18.756;2024-03-06T01:17:13;100472.69;;;3.33;100.00
79463;BME280;68931;47.286;18.756;2024-03-06T01:17:45;100458.22;;;3.25;100.00
79463;BME280;68931;47.286;18.756;2024-03-06T01:18:18;100465.09;;;3.26;100.00
79463;BME280;68931;47.286;18.756;2024-03-06T01:18:50;100473.59;;;3.31;100.00
79463;BME280;68931;47.286;18.756;2024-03-06T01:19:23;100467.78;;;3.23;100.00
79463;BME280;68931;47.286;18.756;2024-03-06T01:19:55;100475.34;;;3.30;100.00
79463;BME280;68931;47.286;18.756;2024-03-06T01:20:27;100460.31;;;3.12;100.00
79463;BME280;68931;47.286;18.756;2024-03-06T01:20:59;100476.41;;;3.23;100.00
79463;BME280;68931;47.286;18.756;2024-03-06T01:21:31;100484.25;;;3.20;100.00
79463;BME280;68931;47.286;18.756;2024-03-06T01:22:03;100453.66;;;3.02;100.00
79463;BME280;68931;47.286;18.756;2024-03-06T01:22:41;100489.59;;;3.16;100.00
79463;BME280;68931;47.286;18.756;2024-03-06T01:23:13;100488.75;;;3.15;100.00
79463;BME280;68931;47.286;18.756;2024-03-06T01:23:45;100489.47;;;3.19;100.00
79463;BME280;68931;47.286;18.756;2024-03-06T01:24:20;100485.28;;;3.15;100.00
79463;BME280;68931;47.286;18.756;2024-03-06T01:24:52;100448.91;;;2.87;100.00
79463;BME280;68931;47.286;18.756;2024-03-06T01:25:25;100471.06;;;2.98;100.00
79463;BME280;68931;47.286;18.756;2024-03-06T01:25:57;100461.69;;;2.93;100.00
79463;BME280;68931;47.286;18.756;2024-03-06T01:26:29;100485.44;;;3.09;100.00
79463;BME280;68931;47.286;18.756;2024-03-06T01:27:01;100487.19;;;3.08;100.00
79463;BME280;68931;47.286;18.756;2024-03-06T01:27:34;100480.44;;;3.02;100.00
79463;BME280;68931;47.286;18.756;2024-03-06T01:28:06;100489.94;;;3.02;100.00
79463;BME280;68931;47.286;18.756;2024-03-06T01:28:38;100492.44;;;3.07;100.00
79463;BME280;68931;47.286;18.756;2024-03-06T01:29:10;100490.69;;;3.07;100.00
79463;BME280;68931;47.286;18.756;2024-03-06T01:29:42;100471.16;;;2.94;100.00
79463;BME280;68931;47.286;18.756;2024-03-06T01:30:14;100495.81;;;3.09;100.00
79463;BME280;68931;47.286;18.756;2024-03-06T01:30:47;100458.34;;;2.89;100.00
79463;BME280;68931;47.286;18.756;2024-03-06T01:31:19;100471.91;;;2.99;100.00
79463;BME280;68931;47.286;18.756;2024-03-06T01:31:51;100488.88;;;3.09;100.00
79463;BME280;68931;47.286;18.756;2024-03-06T01:32:23;100477.84;;;3.02;100.00
79463;BME280;68931;47.286;18.756;2024-03-06T01:32:56;100491.47;;;3.09;100.00
79463;BME280;68931;47.286;18.756;2024-03-06T01:33:28;100481.34;;;3.00;100.00
79463;BME280;68931;47.286;18.756;2024-03-06T01:34:00;100477.00;;;3.02;100.00
79463;BME280;68931;47.286;18.756;2024-03-06T01:34:32;100476.28;;;2.97;100.00
79463;BME280;68931;47.286;18.756;2024-03-06T01:35:04;100466.84;;;2.94;100.00
79463;BME280;68931;47.286;18.756;2024-03-06T01:35:37;100472.91;;;2.93;100.00
79463;BME280;68931;47.286;18.756;2024-03-06T01:36:37;100495.03;;;3.07;100.00
79463;BME280;68931;47.286;18.756;2024-03-06T01:37:09;100466.13;;;2.89;100.00
79463;BME280;68931;47.286;18.756;2024-03-06T01:37:41;100487.31;;;3.03;100.00
79463;BME280;68931;47.286;18.756;2024-03-06T01:38:13;100492.50;;;3.03;100.00
79463;BME280;68931;47.286;18.756;2024-03-06T01:38:46;100478.94;;;2.94;100.00
79463;BME280;68931;47.286;18.756;2024-03-06T01:39:21;100469.59;;;2.88;100.00
79463;BME280;68931;47.286;18.756;2024-03-06T01:39:53;100489.94;;;3.02;100.00
79463;BME280;68931;47.286;18.756;2024-03-06T01:40:25;100491.69;;;3.01;100.00
79463;BME280;68931;47.286;18.756;2024-03-06T01:40:57;100497.72;;;3.02;100.00
79463;BME280;68931;47.286;18.756;2024-03-06T01:41:29;100474.59;;;2.94;100.00
79463;BME280;68931;47.286;18.756;2024-03-06T01:42:02;100484.13;;;2.94;100.00
79463;BME280;68931;47.286;18.756;2024-03-06T01:42:35;100480.88;;;2.86;100.00
79463;BME280;68931;47.286;18.756;2024-03-06T01:43:18;100461.31;;;2.74;100.00
79463;BME280;68931;47.286;18.756;2024-03-06T01:43:51;100493.66;;;2.92;100.00
79463;BME280;68931;47.286;18.756;2024-03-06T01:44:23;100494.47;;;2.94;100.00
79463;BME280;68931;47.286;18.756;2024-03-06T01:44:55;100479.84;;;2.91;100.00
79463;BME280;68931;47.286;18.756;2024-03-06T01:45:27;100455.22;;;2.77;100.00
79463;BME280;68931;47.286;18.756;2024-03-06T01:45:59;100480.69;;;2.93;100.00
79463;BME280;68931;47.286;18.756;2024-03-06T01:46:32;100490.16;;;2.94;100.00
79463;BME280;68931;47.286;18.756;2024-03-06T01:47:04;100469.66;;;2.85;100.00
79463;BME280;68931;47.286;18.756;2024-03-06T01:47:36;100452.75;;;2.72;100.00
79463;BME280;68931;47.286;18.756;2024-03-06T01:48:08;100477.41;;;2.87;100.00
79463;BME280;68931;47.286;18.756;2024-03-06T01:48:40;100481.66;;;2.89;100.00
79463;BME280;68931;47.286;18.756;2024-03-06T01:49:15;100470.50;;;2.87;100.00
79463;BME280;68931;47.286;18.756;2024-03-06T01:49:51;100484.97;;;2.94;100.00
79463;BME280;68931;47.286;18.756;2024-03-06T01:50:23;100496.22;;;2.93;100.00
79463;BME280;68931;47.286;18.756;2024-03-06T01:50:56;100460.41;;;2.77;100.00
79463;BME280;68931;47.286;18.756;2024-03-06T01:51:29;100466.44;;;2.77;100.00
79463;BME280;68931;47.286;18.756;2024-03-06T01:52:20;100480.03;;;2.85;100.00
79463;BME280;68931;47.286;18.756;2024-03-06T01:52:58;100470.72;;;2.78;100.00
79463;BME280;68931;47.286;18.756;2024-03-06T01:53:32;100479.34;;;2.79;100.00
79463;BME280;68931;47.286;18.756;2024-03-06T01:54:05;100487.19;;;2.76;100.00
79463;BME280;68931;47.286;18.756;2024-03-06T01:54:38;100442.94;;;2.51;100.00
79463;BME280;68931;47.286;18.756;2024-03-06T01:55:12;100458.25;;;2.60;100.00
79463;BME280;68931;47.286;18.756;2024-03-06T01:57:13;100494.97;;;2.76;100.00
79463;BME280;68931;47.286;18.756;2024-03-06T01:57:47;100492.41;;;2.74;100.00
79463;BME280;68931;47.286;18.756;2024-03-06T01:58:20;100494.88;;;2.79;100.00
79463;BME280;68931;47.286;18.756;2024-03-06T01:58:53;100469.47;;;2.60;100.00
79463;BME280;68931;47.286;18.756;2024-03-06T01:59:28;100470.28;;;2.62;100.00
79463;BME280;68931;47.286;18.756;2024-03-06T02:00:02;100494.06;;;2.77;100.00
79463;BME280;68931;47.286;18.756;2024-03-06T02:00:35;100491.69;;;2.69;100.00
79463;BME280;68931;47.286;18.756;2024-03-06T02:01:08;100475.50;;;2.61;100.00
79463;BME280;68931;47.286;18.756;2024-03-06T02:01:40;100489.16;;;2.66;100.00
79463;BME280;68931;47.286;18.756;2024-03-06T02:02:12;100466.19;;;2.54;100.00
79463;BME280;68931;47.286;18.756;2024-03-06T02:02:45;100490.84;;;2.69;100.00
79463;BME280;68931;47.286;18.756;2024-03-06T02:03:18;100482.22;;;2.68;100.00
79463;BME280;68931;47.286;18.756;2024-03-06T02:03:53;100497.59;;;2.74;100.00
79463;BME280;68931;47.286;18.756;2024-03-06T02:04:26;100498.53;;;2.72;100.00
79463;BME280;68931;47.286;18.756;2024-03-06T02:05:00;100495.88;;;2.73;100.00
79463;BME280;68931;47.286;18.756;2024-03-06T02:05:33;100479.75;;;2.63;100.00
79463;BME280;68931;47.286;18.756;2024-03-06T02:06:06;100491.78;;;2.64;100.00
79463;BME280;68931;47.286;18.756;2024-03-06T02:06:39;100496.00;;;2.69;100.00
79463;BME280;68931;47.286;18.756;2024-03-06T02:07:14;100455.84;;;2.52;100.00
79463;BME280;68931;47.286;18.756;2024-03-06T02:07:47;100446.50;;;2.47;100.00
79463;BME280;68931;47.286;18.756;2024-03-06T02:08:20;100483.94;;;2.68;100.00
79463;BME280;68931;47.286;18.756;2024-03-06T02:08:52;100465.19;;;2.58;100.00
79463;BME280;68931;47.286;18.756;2024-03-06T02:09:24;100489.16;;;2.66;100.00
79463;BME280;68931;47.286;18.756;2024-03-06T02:09:56;100478.31;;;2.52;100.00
79463;BME280;68931;47.286;18.756;2024-03-06T02:10:29;100465.59;;;2.43;100.00
79463;BME280;68931;47.286;18.756;2024-03-06T02:11:02;100486.66;;;2.63;100.00
79463;BME280;68931;47.286;18.756;2024-03-06T02:11:40;100453.53;;;2.42;100.00
79463;BME280;68931;47.286;18.756;2024-03-06T02:12:13;100463.59;;;2.54;100.00
79463;BME280;68931;47.286;18.756;2024-03-06T02:12:51;100479.00;;;2.58;100.00
79463;BME280;68931;47.286;18.756;2024-03-06T02:13:25;100458.50;;;2.49;100.00
79463;BME280;68931;47.286;18.756;2024-03-06T02:13:57;100470.47;;;2.55;100.00
79463;BME280;68931;47.286;18.756;2024-03-06T02:14:30;100477.31;;;2.56;100.00
79463;BME280;68931;47.286;18.756;2024-03-06T02:15:04;100473.09;;;2.53;100.00
79463;BME280;68931;47.286;18.756;2024-03-06T02:15:37;100487.56;;;2.62;100.00
79463;BME280;68931;47.286;18.756;2024-03-06T02:16:11;100478.16;;;2.58;100.00
79463;BME280;68931;47.286;18.756;2024-03-06T02:16:43;100496.03;;;2.67;100.00
79463;BME280;68931;47.286;18.756;2024-03-06T02:17:15;100481.66;;;2.55;100.00
79463;BME280;68931;47.286;18.756;2024-03-06T02:17:47;100477.47;;;2.51;100.00
79463;BME280;68931;47.286;18.756;2024-03-06T02:18:19;100490.19;;;2.60;100.00
79463;BME280;68931;47.286;18.756;2024-03-06T02:18:55;100496.22;;;2.61;100.00
79463;BME280;68931;47.286;18.756;2024-03-06T02:19:41;100490.25;;;2.57;100.00
79463;BME280;68931;47.286;18.756;2024-03-06T02:20:13;100497.16;;;2.57;100.00
79463;BME280;68931;47.286;18.756;2024-03-06T02:20:46;100492.06;;;2.54;100.00
79463;BME280;68931;47.286;18.756;2024-03-06T02:21:22;100470.78;;;2.43;100.00
79463;BME280;68931;47.286;18.756;2024-03-06T02:21:55;100494.66;;;2.54;100.00
79463;BME280;68931;47.286;18.756;2024-03-06T02:22:27;100452.97;;;2.29;100.00
79463;BME280;68931;47.286;18.756;2024-03-06T02:22:59;100490.41;;;2.51;100.00
79463;BME280;68931;47.286;18.756;2024-03-06T02:23:33;100464.06;;;2.36;100.00
79463;BME280;68931;47.286;18.756;2024-03-06T02:24:05;100460.63;;;2.34;100.00
79463;BME280;68931;47.286;18.756;2024-03-06T02:24:40;100473.41;;;2.40;100.00
79463;BME280;68931;47.286;18.756;2024-03-06T02:25:12;100475.91;;;2.44;100.00
79463;BME280;68931;47.286;18.756;2024-03-06T02:25:44;100473.41;;;2.40;100.00
79463;BME280;68931;47.286;18.756;2024-03-06T02:26:19;100487.75;;;2.54;100.00
79463;BME280;68931;47.286;18.756;2024-03-06T02:27:12;100482.69;;;2.48;100.00
79463;BME280;68931;47.286;18.756;2024-03-06T02:28:05;100457.25;;;2.30;100.00
79463;BME280;68931;47.286;18.756;2024-03-06T02:28:38;100492.16;;;2.49;100.00
79463;BME280;68931;47.286;18.756;2024-03-06T02:29:10;100472.66;;;2.36;100.00
79463;BME280;68931;47.286;18.756;2024-03-06T02:29:51;100494.72;;;2.51;100.00
79463;BME280;68931;47.286;18.756;2024-03-06T02:30:37;100464.31;;;2.25;100.00
79463;BME280;68931;47.286;18.756;2024-03-06T02:31:09;100451.53;;;2.19;100.00
79463;BME280;68931;47.286;18.756;2024-03-06T02:31:41;100496.44;;;2.52;100.00
79463;BME280;68931;47.286;18.756;2024-03-06T02:32:14;100469.22;;;2.36;100.00
79463;BME280;68931;47.286;18.756;2024-03-06T02:32:49;100456.41;;;2.30;100.00
79463;BME280;68931;47.286;18.756;2024-03-06T02:33:21;100481.13;;;2.43;100.00
79463;BME280;68931;47.286;18.756;2024-03-06T02:33:53;100499.84;;;2.54;100.00
79463;BME280;68931;47.286;18.756;2024-03-06T02:34:25;100478.63;;;2.38;100.00
79463;BME280;68931;47.286;18.756;2024-03-06T02:34:57;100470.94;;;2.37;100.00
79463;BME280;68931;47.286;18.756;2024-03-06T02:36:07;100502.44;;;2.54;100.00
79463;BME280;68931;47.286;18.756;2024-03-06T02:36:42;100502.38;;;2.55;100.00
79463;BME280;68931;47.286;18.756;2024-03-06T02:37:15;100504.97;;;2.55;100.00
79463;BME280;68931;47.286;18.756;2024-03-06T02:37:47;100496.38;;;2.55;100.00
79463;BME280;68931;47.286;18.756;2024-03-06T02:38:19;100482.81;;;2.44;100.00
79463;BME280;68931;47.286;18.756;2024-03-06T02:38:51;100501.47;;;2.56;100.00
79463;BME280;68931;47.286;18.756;2024-03-06T02:39:23;100497.25;;;2.54;100.00
79463;BME280;68931;47.286;18.756;2024-03-06T02:39:56;100504.94;;;2.57;100.00
79463;BME280;68931;47.286;18.756;2024-03-06T02:40:28;100498.13;;;2.53;100.00
79463;BME280;68931;47.286;18.756;2024-03-06T02:41:00;100478.53;;;2.43;100.00
79463;BME280;68931;47.286;18.756;2024-03-06T02:41:32;100479.41;;;2.42;100.00
79463;BME280;68931;47.286;18.756;2024-03-06T02:42:04;100499.03;;;2.52;100.00
79463;BME280;68931;47.286;18.756;2024-03-06T02:42:37;100498.13;;;2.53;100.00
79463;BME280;68931;47.286;18.756;2024-03-06T02:43:10;100506.66;;;2.56;100.00
79463;BME280;68931;47.286;18.756;2024-03-06T02:43:42;100488.00;;;2.44;100.00
79463;BME280;68931;47.286;18.756;2024-03-06T02:44:15;100501.63;;;2.52;100.00
79463;BME280;68931;47.286;18.756;2024-03-06T02:44:49;100507.50;;;2.57;100.00
79463;BME280;68931;47.286;18.756;2024-03-06T02:45:21;100486.09;;;2.50;100.00
79463;BME280;68931;47.286;18.756;2024-03-06T02:45:53;100484.31;;;2.54;100.00
79463;BME280;68931;47.286;18.756;2024-03-06T02:46:25;100483.50;;;2.52;100.00
79463;BME280;68931;47.286;18.756;2024-03-06T02:46:57;100512.44;;;2.68;100.00
79463;BME280;68931;47.286;18.756;2024-03-06T02:47:29;100497.06;;;2.61;100.00
79463;BME280;68931;47.286;18.756;2024-03-06T02:48:02;100488.47;;;2.59;100.00
79463;BME280;68931;47.286;18.756;2024-03-06T02:48:34;100489.28;;;2.61;100.00
79463;BME280;68931;47.286;18.756;2024-03-06T02:49:06;100494.44;;;2.63;100.00
79463;BME280;68931;47.286;18.756;2024-03-06T02:49:38;100504.69;;;2.66;100.00
79463;BME280;68931;47.286;18.756;2024-03-06T02:50:18;100492.63;;;2.65;100.00
79463;BME280;68931;47.286;18.756;2024-03-06T02:50:52;100489.25;;;2.63;100.00
79463;BME280;68931;47.286;18.756;2024-03-06T02:51:24;100496.00;;;2.69;100.00
79463;BME280;68931;47.286;18.756;2024-03-06T02:51:57;100473.00;;;2.56;100.00
79463;BME280;68931;47.286;18.756;2024-03-06T02:52:29;100475.50;;;2.61;100.00
79463;BME280;68931;47.286;18.756;2024-03-06T02:53:01;100477.16;;;2.63;100.00
79463;BME280;68931;47.286;18.756;2024-03-06T02:53:33;100483.06;;;2.69;100.00
79463;BME280;68931;47.286;18.756;2024-03-06T02:54:05;100482.91;;;2.75;100.00
79463;BME280;68931;47.286;18.756;2024-03-06T02:54:53;100509.31;;;2.89;100.00
79463;BME280;68931;47.286;18.756;2024-03-06T02:55:28;100493.88;;;2.84;100.00
79463;BME280;68931;47.286;18.756;2024-03-06T02:56:00;100501.59;;;2.86;100.00